sensor_id;sensor_type;location;lat;lon;timestamp;pressure;altitude;pressure_sealevel;temperature
28905;BMP280;60848;53.884;11.446;2023-04-30T00:00:40;101925.72;;;8.83
28905;BMP280;60848;53.884;11.446;2023-04-30T00:03:08;101926.00;;;8.81
28905;BMP280;60848;53.884;11.446;2023-04-30T00:05:37;101922.19;;;8.79
28905;BMP280;60848;53.884;11.446;2023-04-30T00:08:05;101913.13;;;8.76
28905;BMP280;60848;53.884;11.446;2023-04-30T00:10:34;101915.94;;;8.71
28905;BMP280;60848;53.884;11.446;2023-04-30T00:13:02;101914.28;;;8.67
28905;BMP280;60848;53.884;11.446;2023-04-30T00:15:31;101921.97;;;8.63
28905;BMP280;60848;53.884;11.446;2023-04-30T00:18:00;101931.19;;;8.61
28905;BMP280;60848;53.884;11.446;2023-04-30T00:20:29;101930.41;;;8.60
28905;BMP280;60848;53.884;11.446;2023-04-30T00:22:58;101932.25;;;8.60
28905;BMP280;60848;53.884;11.446;2023-04-30T00:25:26;101928.13;;;8.59
28905;BMP280;60848;53.884;11.446;2023-04-30T00:27:55;101934.41;;;8.58
28905;BMP280;60848;53.884;11.446;2023-04-30T00:30:23;101936.13;;;8.54
28905;BMP280;60848;53.884;11.446;2023-04-30T00:32:52;101938.72;;;8.54
28905;BMP280;60848;53.884;11.446;2023-04-30T00:35:22;101934.88;;;8.51
28905;BMP280;60848;53.884;11.446;2023-04-30T00:37:50;101936.59;;;8.47
28905;BMP280;60848;53.884;11.446;2023-04-30T00:40:19;101934.94;;;8.43
28905;BMP280;60848;53.884;11.446;2023-04-30T00:42:48;101940.31;;;8.38
28905;BMP280;60848;53.884;11.446;2023-04-30T00:45:18;101934.94;;;8.34
28905;BMP280;60848;53.884;11.446;2023-04-30T00:47:48;101936.66;;;8.30
28905;BMP280;60848;53.884;11.446;2023-04-30T00:50:16;101953.69;;;8.28
28905;BMP280;60848;53.884;11.446;2023-04-30T00:52:46;101948.00;;;8.26
28905;BMP280;60848;53.884;11.446;2023-04-30T00:55:15;101954.00;;;8.26
28905;BMP280;60848;53.884;11.446;2023-04-30T00:57:44;101955.03;;;8.25
28905;BMP280;60848;53.884;11.446;2023-04-30T01:00:14;101959.94;;;8.27
28905;BMP280;60848;53.884;11.446;2023-04-30T01:02:43;101952.91;;;8.27
28905;BMP280;60848;53.884;11.446;2023-04-30T01:05:12;101950.59;;;8.26
28905;BMP280;60848;53.884;11.446;2023-04-30T01:07:40;101954.00;;;8.26
28905;BMP280;60848;53.884;11.446;2023-04-30T01:10:13;101956.28;;;8.28
28905;BMP280;60848;53.884;11.446;2023-04-30T01:12:49;101961.50;;;8.28
28905;BMP280;60848;53.884;11.446;2023-04-30T01:15:26;101959.66;;;8.28
28905;BMP280;60848;53.884;11.446;2023-04-30T01:17:59;101959.94;;;8.27
28905;BMP280;60848;53.884;11.446;2023-04-30T01:20:31;101973.75;;;8.27
28905;BMP280;60848;53.884;11.446;2023-04-30T01:23:16;101967.03;;;8.26
28905;BMP280;60848;53.884;11.446;2023-04-30T01:26:10;101968.84;;;8.26
28905;BMP280;60848;53.884;11.446;2023-04-30T01:28:42;101965.81;;;8.24
28905;BMP280;60848;53.884;11.446;2023-04-30T01:31:13;101970.56;;;8.22
28905;BMP280;60848;53.884;11.446;2023-04-30T01:33:42;101970.56;;;8.22
28905;BMP280;60848;53.884;11.446;2023-04-30T01:36:28;101977.28;;;8.23
28905;BMP280;60848;53.884;11.446;2023-04-30T01:39:30;101980.66;;;8.23
28905;BMP280;60848;53.884;11.446;2023-04-30T01:42:06;101995.84;;;8.21
28905;BMP280;60848;53.884;11.446;2023-04-30T01:45:08;101989.56;;;8.22
28905;BMP280;60848;53.884;11.446;2023-04-30T01:47:47;101991.25;;;8.18
28905;BMP280;60848;53.884;11.446;2023-04-30T01:50:28;101992.00;;;8.19
28905;BMP280;60848;53.884;11.446;2023-04-30T01:53:01;101990.47;;;8.18
28905;BMP280;60848;53.884;11.446;2023-04-30T01:55:35;101990.78;;;8.16
28905;BMP280;60848;53.884;11.446;2023-04-30T01:58:08;101998.63;;;8.16
28905;BMP280;60848;53.884;11.446;2023-04-30T02:00:38;101994.91;;;8.17
28905;BMP280;60848;53.884;11.446;2023-04-30T02:03:09;101999.66;;;8.15
28905;BMP280;60848;53.884;11.446;2023-04-30T02:05:37;101993.69;;;8.15
28905;BMP280;60848;53.884;11.446;2023-04-30T02:08:06;102004.09;;;8.15
28905;BMP280;60848;53.884;11.446;2023-04-30T02:10:35;101996.28;;;8.15
28905;BMP280;60848;53.884;11.446;2023-04-30T02:13:03;102004.09;;;8.15
28905;BMP280;60848;53.884;11.446;2023-04-30T02:15:32;101999.97;;;8.14
28905;BMP280;60848;53.884;11.446;2023-04-30T02:18:02;101999.97;;;8.14
28905;BMP280;60848;53.884;11.446;2023-04-30T02:20:30;101999.56;;;8.12
28905;BMP280;60848;53.884;11.446;2023-04-30T02:22:59;102004.75;;;8.12
28905;BMP280;60848;53.884;11.446;2023-04-30T02:25:27;102008.13;;;8.12
28905;BMP280;60848;53.884;11.446;2023-04-30T02:27:56;102006.13;;;8.09
28905;BMP280;60848;53.884;11.446;2023-04-30T02:30:24;102001.53;;;8.06
28905;BMP280;60848;53.884;11.446;2023-04-30T02:32:53;102003.53;;;8.00
28905;BMP280;60848;53.884;11.446;2023-04-30T02:35:23;102003.84;;;7.99
28905;BMP280;60848;53.884;11.446;2023-04-30T02:37:51;102010.41;;;7.96
28905;BMP280;60848;53.884;11.446;2023-04-30T02:40:20;102009.19;;;7.94
28905;BMP280;60848;53.884;11.446;2023-04-30T02:42:51;102018.72;;;7.90
28905;BMP280;60848;53.884;11.446;2023-04-30T02:45:22;102015.19;;;7.86
28905;BMP280;60848;53.884;11.446;2023-04-30T02:47:53;102026.19;;;7.83
28905;BMP280;60848;53.884;11.446;2023-04-30T02:50:23;102029.25;;;7.76
28905;BMP280;60848;53.884;11.446;2023-04-30T02:52:52;102022.22;;;7.68
28905;BMP280;60848;53.884;11.446;2023-04-30T02:55:22;102026.66;;;7.59
28905;BMP280;60848;53.884;11.446;2023-04-30T02:57:50;102025.38;;;7.48
28905;BMP280;60848;53.884;11.446;2023-04-30T03:00:20;102021.22;;;7.39
28905;BMP280;60848;53.884;11.446;2023-04-30T03:02:49;102035.31;;;7.29
28905;BMP280;60848;53.884;11.446;2023-04-30T03:05:17;102023.78;;;7.22
28905;BMP280;60848;53.884;11.446;2023-04-30T03:07:47;102022.69;;;7.14
28905;BMP280;60848;53.884;11.446;2023-04-30T03:10:15;102024.69;;;7.09
28905;BMP280;60848;53.884;11.446;2023-04-30T03:12:45;102026.00;;;6.98
28905;BMP280;60848;53.884;11.446;2023-04-30T03:15:13;102034.88;;;6.97
28905;BMP280;60848;53.884;11.446;2023-04-30T03:17:42;102033.47;;;6.91
28905;BMP280;60848;53.884;11.446;2023-04-30T03:20:12;102039.88;;;6.84
28905;BMP280;60848;53.884;11.446;2023-04-30T03:22:41;102035.41;;;6.76
28905;BMP280;60848;53.884;11.446;2023-04-30T03:25:11;102043.00;;;6.73
28905;BMP280;60848;53.884;11.446;2023-04-30T03:27:39;102045.41;;;6.69
28905;BMP280;60848;53.884;11.446;2023-04-30T03:30:09;102046.78;;;6.67
28905;BMP280;60848;53.884;11.446;2023-04-30T03:32:40;102048.31;;;6.68
28905;BMP280;60848;53.884;11.446;2023-04-30T03:35:09;102042.16;;;6.64
28905;BMP280;60848;53.884;11.446;2023-04-30T03:37:37;102039.56;;;6.64
28905;BMP280;60848;53.884;11.446;2023-04-30T03:40:07;102039.91;;;6.62
28905;BMP280;60848;53.884;11.446;2023-04-30T03:42:37;102044.63;;;6.60
28905;BMP280;60848;53.884;11.446;2023-04-30T03:45:06;102050.09;;;6.59
28905;BMP280;60848;53.884;11.446;2023-04-30T03:47:35;102061.28;;;6.59
28905;BMP280;60848;53.884;11.446;2023-04-30T03:50:04;102062.63;;;6.57
28905;BMP280;60848;53.884;11.446;2023-04-30T03:52:33;102060.78;;;6.57
28905;BMP280;60848;53.884;11.446;2023-04-30T03:55:05;102063.09;;;6.59
28905;BMP280;60848;53.884;11.446;2023-04-30T03:57:34;102066.16;;;6.61
28905;BMP280;60848;53.884;11.446;2023-04-30T04:00:06;102067.72;;;6.62
28905;BMP280;60848;53.884;11.446;2023-04-30T04:02:38;102067.41;;;6.63
28905;BMP280;60848;53.884;11.446;2023-04-30T04:05:09;102067.56;;;6.67
28905;BMP280;60848;53.884;11.446;2023-04-30T04:07:38;102062.84;;;6.69
28905;BMP280;60848;53.884;11.446;2023-04-30T04:10:07;102067.78;;;6.70
28905;BMP280;60848;53.884;11.446;2023-04-30T04:12:38;102064.50;;;6.65
28905;BMP280;60848;53.884;11.446;2023-04-30T04:15:08;102070.75;;;6.64
28905;BMP280;60848;53.884;11.446;2023-04-30T04:17:38;102069.84;;;6.60
28905;BMP280;60848;53.884;11.446;2023-04-30T04:20:10;102071.00;;;6.54
28905;BMP280;60848;53.884;11.446;2023-04-30T04:22:40;102068.84;;;6.47
28905;BMP280;60848;53.884;11.446;2023-04-30T04:25:11;102074.63;;;6.44
28905;BMP280;60848;53.884;11.446;2023-04-30T04:27:42;102086.06;;;6.43
28905;BMP280;60848;53.884;11.446;2023-04-30T04:30:12;102083.47;;;6.43
28905;BMP280;60848;53.884;11.446;2023-04-30T04:32:40;102089.63;;;6.47
28905;BMP280;60848;53.884;11.446;2023-04-30T04:35:14;102081.81;;;6.47
28905;BMP280;60848;53.884;11.446;2023-04-30T04:37:43;102091.16;;;6.48
28905;BMP280;60848;53.884;11.446;2023-04-30T04:40:14;102094.25;;;6.50
28905;BMP280;60848;53.884;11.446;2023-04-30T04:42:43;102097.59;;;6.51
28905;BMP280;60848;53.884;11.446;2023-04-30T04:45:13;102095.75;;;6.51
28905;BMP280;60848;53.884;11.446;2023-04-30T04:47:42;102096.38;;;6.48
28905;BMP280;60848;53.884;11.446;2023-04-30T04:50:11;102101.72;;;6.52
28905;BMP280;60848;53.884;11.446;2023-04-30T04:52:43;102103.72;;;6.55
28905;BMP280;60848;53.884;11.446;2023-04-30T04:55:12;102102.66;;;6.56
28905;BMP280;60848;53.884;11.446;2023-04-30T04:57:40;102115.84;;;6.59
28905;BMP280;60848;53.884;11.446;2023-04-30T05:00:09;102111.13;;;6.61
28905;BMP280;60848;53.884;11.446;2023-04-30T05:02:40;102116.22;;;6.66
28905;BMP280;60848;53.884;11.446;2023-04-30T05:05:08;102126.66;;;6.75
28905;BMP280;60848;53.884;11.446;2023-04-30T05:07:37;102119.16;;;6.96
28905;BMP280;60848;53.884;11.446;2023-04-30T05:10:07;102121.13;;;7.21
28905;BMP280;60848;53.884;11.446;2023-04-30T05:12:35;102125.81;;;7.41
28905;BMP280;60848;53.884;11.446;2023-04-30T05:15:05;102128.59;;;7.53
28905;BMP280;60848;53.884;11.446;2023-04-30T05:17:33;102138.75;;;7.63
28905;BMP280;60848;53.884;11.446;2023-04-30T05:20:04;102130.06;;;7.84
28905;BMP280;60848;53.884;11.446;2023-04-30T05:22:33;102136.69;;;7.99
28905;BMP280;60848;53.884;11.446;2023-04-30T05:25:01;102140.38;;;8.15
28905;BMP280;60848;53.884;11.446;2023-04-30T05:27:32;102142.53;;;8.47
28905;BMP280;60848;53.884;11.446;2023-04-30T05:30:01;102139.41;;;8.88
28905;BMP280;60848;53.884;11.446;2023-04-30T05:32:29;102139.38;;;9.05
28905;BMP280;60848;53.884;11.446;2023-04-30T05:34:58;102145.19;;;9.10
28905;BMP280;60848;53.884;11.446;2023-04-30T05:37:28;102144.56;;;9.13
28905;BMP280;60848;53.884;11.446;2023-04-30T05:39:56;102145.94;;;9.19
28905;BMP280;60848;53.884;11.446;2023-04-30T05:42:26;102146.41;;;9.13
28905;BMP280;60848;53.884;11.446;2023-04-30T05:44:55;102152.41;;;9.05
28905;BMP280;60848;53.884;11.446;2023-04-30T05:47:23;102161.19;;;9.00
28905;BMP280;60848;53.884;11.446;2023-04-30T05:49:54;102162.03;;;9.21
28905;BMP280;60848;53.884;11.446;2023-04-30T05:52:23;102153.72;;;9.66
28905;BMP280;60848;53.884;11.446;2023-04-30T05:54:53;102165.97;;;10.15
28905;BMP280;60848;53.884;11.446;2023-04-30T05:57:22;102163.47;;;10.71
28905;BMP280;60848;53.884;11.446;2023-04-30T05:59:50;102165.75;;;11.30
28905;BMP280;60848;53.884;11.446;2023-04-30T06:02:22;102170.13;;;11.89
28905;BMP280;60848;53.884;11.446;2023-04-30T06:04:51;102160.09;;;12.47
28905;BMP280;60848;53.884;11.446;2023-04-30T06:07:19;102165.75;;;12.95
28905;BMP280;60848;53.884;11.446;2023-04-30T06:09:48;102166.75;;;13.37
28905;BMP280;60848;53.884;11.446;2023-04-30T06:12:17;102168.31;;;13.76
28905;BMP280;60848;53.884;11.446;2023-04-30T06:14:46;102169.38;;;14.14
28905;BMP280;60848;53.884;11.446;2023-04-30T06:17:14;102169.59;;;14.47
28905;BMP280;60848;53.884;11.446;2023-04-30T06:19:42;102157.75;;;14.82
28905;BMP280;60848;53.884;11.446;2023-04-30T06:22:11;102165.44;;;15.20
28905;BMP280;60848;53.884;11.446;2023-04-30T06:24:39;102160.63;;;15.55
28905;BMP280;60848;53.884;11.446;2023-04-30T06:27:08;102171.53;;;15.87
28905;BMP280;60848;53.884;11.446;2023-04-30T06:29:38;102160.41;;;16.04
28905;BMP280;60848;53.884;11.446;2023-04-30T06:32:06;102169.25;;;16.22
28905;BMP280;60848;53.884;11.446;2023-04-30T06:34:34;102173.59;;;16.48
28905;BMP280;60848;53.884;11.446;2023-04-30T06:37:03;102174.88;;;16.68
28905;BMP280;60848;53.884;11.446;2023-04-30T06:39:34;102184.09;;;16.91
28905;BMP280;60848;53.884;11.446;2023-04-30T06:42:02;102178.25;;;17.26
28905;BMP280;60848;53.884;11.446;2023-04-30T06:44:32;102175.38;;;17.62
28905;BMP280;60848;53.884;11.446;2023-04-30T06:47:04;102172.81;;;18.01
28905;BMP280;60848;53.884;11.446;2023-04-30T06:49:32;102175.41;;;18.39
28905;BMP280;60848;53.884;11.446;2023-04-30T06:52:03;102181.84;;;18.70
28905;BMP280;60848;53.884;11.446;2023-04-30T06:54:31;102178.00;;;18.92
28905;BMP280;60848;53.884;11.446;2023-04-30T06:57:02;102173.75;;;19.12
28905;BMP280;60848;53.884;11.446;2023-04-30T06:59:33;102170.25;;;19.33
28905;BMP280;60848;53.884;11.446;2023-04-30T07:02:01;102179.59;;;19.55
28905;BMP280;60848;53.884;11.446;2023-04-30T07:04:31;102181.38;;;19.75
28905;BMP280;60848;53.884;11.446;2023-04-30T07:07:02;102185.38;;;19.97
28905;BMP280;60848;53.884;11.446;2023-04-30T07:09:30;102178.06;;;20.12
28905;BMP280;60848;53.884;11.446;2023-04-30T07:12:00;102180.25;;;20.20
28905;BMP280;60848;53.884;11.446;2023-04-30T07:14:29;102191.56;;;20.28
28905;BMP280;60848;53.884;11.446;2023-04-30T07:16:57;102198.75;;;20.34
28905;BMP280;60848;53.884;11.446;2023-04-30T07:19:25;102200.19;;;20.42
28905;BMP280;60848;53.884;11.446;2023-04-30T07:21:57;102188.97;;;20.24
28905;BMP280;60848;53.884;11.446;2023-04-30T07:24:26;102193.22;;;20.15
28905;BMP280;60848;53.884;11.446;2023-04-30T07:26:54;102194.91;;;19.95
28905;BMP280;60848;53.884;11.446;2023-04-30T07:29:23;102185.13;;;19.81
28905;BMP280;60848;53.884;11.446;2023-04-30T07:31:53;102192.69;;;19.83
28905;BMP280;60848;53.884;11.446;2023-04-30T07:34:23;102197.63;;;19.81
28905;BMP280;60848;53.884;11.446;2023-04-30T07:36:52;102195.00;;;19.84
28905;BMP280;60848;53.884;11.446;2023-04-30T07:39:22;102198.81;;;19.80
28905;BMP280;60848;53.884;11.446;2023-04-30T07:41:50;102203.09;;;19.60
28905;BMP280;60848;53.884;11.446;2023-04-30T07:44:18;102217.97;;;19.50
28905;BMP280;60848;53.884;11.446;2023-04-30T07:46:47;102215.63;;;19.56
28905;BMP280;60848;53.884;11.446;2023-04-30T07:49:16;102207.59;;;19.70
28905;BMP280;60848;53.884;11.446;2023-04-30T07:51:44;102204.38;;;19.34
28905;BMP280;60848;53.884;11.446;2023-04-30T07:54:13;102210.09;;;19.19
28905;BMP280;60848;53.884;11.446;2023-04-30T07:56:42;102223.41;;;19.05
28905;BMP280;60848;53.884;11.446;2023-04-30T07:59:13;102228.75;;;18.98
28905;BMP280;60848;53.884;11.446;2023-04-30T08:01:41;102225.66;;;19.13
28905;BMP280;60848;53.884;11.446;2023-04-30T08:04:10;102224.88;;;19.23
28905;BMP280;60848;53.884;11.446;2023-04-30T08:06:41;102229.72;;;19.39
28905;BMP280;60848;53.884;11.446;2023-04-30T08:09:09;102227.00;;;19.53
28905;BMP280;60848;53.884;11.446;2023-04-30T08:11:38;102226.09;;;19.77
28905;BMP280;60848;53.884;11.446;2023-04-30T08:14:07;102230.91;;;19.99
28905;BMP280;60848;53.884;11.446;2023-04-30T08:16:36;102231.66;;;20.00
28905;BMP280;60848;53.884;11.446;2023-04-30T08:19:04;102230.25;;;19.81
28905;BMP280;60848;53.884;11.446;2023-04-30T08:21:33;102232.69;;;19.58
28905;BMP280;60848;53.884;11.446;2023-04-30T08:24:01;102237.66;;;19.49
28905;BMP280;60848;53.884;11.446;2023-04-30T08:26:29;102240.31;;;19.49
28905;BMP280;60848;53.884;11.446;2023-04-30T08:28:58;102244.13;;;19.48
28905;BMP280;60848;53.884;11.446;2023-04-30T08:31:28;102246.03;;;19.41
28905;BMP280;60848;53.884;11.446;2023-04-30T08:33:56;102246.09;;;19.23
28905;BMP280;60848;53.884;11.446;2023-04-30T08:36:26;102262.06;;;19.02
28905;BMP280;60848;53.884;11.446;2023-04-30T08:38:55;102256.41;;;18.86
28905;BMP280;60848;53.884;11.446;2023-04-30T08:41:25;102262.84;;;18.96
28905;BMP280;60848;53.884;11.446;2023-04-30T08:43:54;102265.16;;;18.83
28905;BMP280;60848;53.884;11.446;2023-04-30T08:46:23;102254.53;;;18.73
28905;BMP280;60848;53.884;11.446;2023-04-30T08:48:54;102255.69;;;18.64
28905;BMP280;60848;53.884;11.446;2023-04-30T08:51:25;102264.75;;;18.74
28905;BMP280;60848;53.884;11.446;2023-04-30T08:53:54;102259.47;;;18.81
28905;BMP280;60848;53.884;11.446;2023-04-30T08:56:24;102264.78;;;18.71
28905;BMP280;60848;53.884;11.446;2023-04-30T08:58:52;102262.13;;;18.56
28905;BMP280;60848;53.884;11.446;2023-04-30T09:01:21;102259.84;;;18.30
28905;BMP280;60848;53.884;11.446;2023-04-30T09:03:50;102269.25;;;18.07
28905;BMP280;60848;53.884;11.446;2023-04-30T09:06:20;102276.03;;;17.97
28905;BMP280;60848;53.884;11.446;2023-04-30T09:08:48;102266.63;;;18.07
28905;BMP280;60848;53.884;11.446;2023-04-30T09:11:25;102273.81;;;18.13
28905;BMP280;60848;53.884;11.446;2023-04-30T09:13:56;102267.78;;;18.20
28905;BMP280;60848;53.884;11.446;2023-04-30T09:16:26;102257.94;;;18.31
28905;BMP280;60848;53.884;11.446;2023-04-30T09:18:57;102262.88;;;18.32
28905;BMP280;60848;53.884;11.446;2023-04-30T09:21:32;102260.97;;;18.15
28905;BMP280;60848;53.884;11.446;2023-04-30T09:24:02;102268.84;;;17.98
28905;BMP280;60848;53.884;11.446;2023-04-30T09:26:31;102266.19;;;17.91
28905;BMP280;60848;53.884;11.446;2023-04-30T09:29:01;102262.03;;;17.93
28905;BMP280;60848;53.884;11.446;2023-04-30T09:31:37;102269.19;;;17.93
28905;BMP280;60848;53.884;11.446;2023-04-30T09:34:06;102262.47;;;18.13
28905;BMP280;60848;53.884;11.446;2023-04-30T09:36:36;102273.47;;;18.29
28905;BMP280;60848;53.884;11.446;2023-04-30T09:39:05;102270.06;;;18.39
28905;BMP280;60848;53.884;11.446;2023-04-30T09:41:37;102268.19;;;18.43
28905;BMP280;60848;53.884;11.446;2023-04-30T09:44:05;102260.22;;;18.50
28905;BMP280;60848;53.884;11.446;2023-04-30T09:46:34;102264.75;;;18.49
28905;BMP280;60848;53.884;11.446;2023-04-30T09:49:05;102262.13;;;18.56
28905;BMP280;60848;53.884;11.446;2023-04-30T09:51:33;102270.06;;;18.67
28905;BMP280;60848;53.884;11.446;2023-04-30T09:54:04;102269.31;;;18.77
28905;BMP280;60848;53.884;11.446;2023-04-30T09:56:35;102258.31;;;18.86
28905;BMP280;60848;53.884;11.446;2023-04-30T09:59:06;102270.41;;;19.01
28905;BMP280;60848;53.884;11.446;2023-04-30T10:01:35;102260.09;;;19.20
28905;BMP280;60848;53.884;11.446;2023-04-30T10:04:06;102261.22;;;19.33
28905;BMP280;60848;53.884;11.446;2023-04-30T10:06:35;102261.97;;;19.44
28905;BMP280;60848;53.884;11.446;2023-04-30T10:09:05;102253.56;;;19.56
28905;BMP280;60848;53.884;11.446;2023-04-30T10:11:35;102256.91;;;19.67
28905;BMP280;60848;53.884;11.446;2023-04-30T10:14:07;102259.91;;;19.69
28905;BMP280;60848;53.884;11.446;2023-04-30T10:16:41;102256.09;;;19.74
28905;BMP280;60848;53.884;11.446;2023-04-30T10:19:13;102266.69;;;19.84
28905;BMP280;60848;53.884;11.446;2023-04-30T10:21:44;102252.53;;;19.98
28905;BMP280;60848;53.884;11.446;2023-04-30T10:24:16;102255.13;;;20.08
28905;BMP280;60848;53.884;11.446;2023-04-30T10:26:46;102248.19;;;20.21
28905;BMP280;60848;53.884;11.446;2023-04-30T10:29:15;102252.28;;;20.33
28905;BMP280;60848;53.884;11.446;2023-04-30T10:31:46;102256.94;;;20.22
28905;BMP280;60848;53.884;11.446;2023-04-30T10:34:20;102245.97;;;20.16
28905;BMP280;60848;53.884;11.446;2023-04-30T10:36:55;102248.91;;;20.25
28905;BMP280;60848;53.884;11.446;2023-04-30T10:39:26;102247.72;;;20.33
28905;BMP280;60848;53.884;11.446;2023-04-30T10:42:02;102245.75;;;20.41
28905;BMP280;60848;53.884;11.446;2023-04-30T10:44:31;102240.31;;;20.51
28905;BMP280;60848;53.884;11.446;2023-04-30T10:47:02;102241.50;;;20.50
28905;BMP280;60848;53.884;11.446;2023-04-30T10:49:30;102239.03;;;20.29
28905;BMP280;60848;53.884;11.446;2023-04-30T10:52:02;102237.31;;;20.09
28905;BMP280;60848;53.884;11.446;2023-04-30T10:54:34;102232.75;;;20.06
28905;BMP280;60848;53.884;11.446;2023-04-30T10:57:09;102237.31;;;20.02
28905;BMP280;60848;53.884;11.446;2023-04-30T10:59:44;102231.78;;;19.82
28905;BMP280;60848;53.884;11.446;2023-04-30T11:02:15;102236.41;;;19.71
28905;BMP280;60848;53.884;11.446;2023-04-30T11:05:08;102233.44;;;19.59
28905;BMP280;60848;53.884;11.446;2023-04-30T11:07:45;102229.66;;;19.53
28905;BMP280;60848;53.884;11.446;2023-04-30T11:10:19;102233.53;;;19.41
28905;BMP280;60848;53.884;11.446;2023-04-30T11:12:49;102241.16;;;19.32
28905;BMP280;60848;53.884;11.446;2023-04-30T11:15:23;102230.22;;;19.20
28905;BMP280;60848;53.884;11.446;2023-04-30T11:17:55;102241.53;;;19.20
28905;BMP280;60848;53.884;11.446;2023-04-30T11:20:25;102239.31;;;19.15
28905;BMP280;60848;53.884;11.446;2023-04-30T11:23:13;102230.59;;;19.04
28905;BMP280;60848;53.884;11.446;2023-04-30T11:25:55;102226.09;;;19.01
28905;BMP280;60848;53.884;11.446;2023-04-30T11:28:27;102229.13;;;19.00
28905;BMP280;60848;53.884;11.446;2023-04-30T11:30:57;102217.72;;;19.03
28905;BMP280;60848;53.884;11.446;2023-04-30T11:33:27;102226.09;;;18.98
28905;BMP280;60848;53.884;11.446;2023-04-30T11:35:56;102220.03;;;18.97
28905;BMP280;60848;53.884;11.446;2023-04-30T11:38:26;102218.13;;;18.94
28905;BMP280;60848;53.884;11.446;2023-04-30T11:40:59;102218.50;;;18.96
28905;BMP280;60848;53.884;11.446;2023-04-30T11:43:28;102221.91;;;19.00
28905;BMP280;60848;53.884;11.446;2023-04-30T11:45:59;102216.59;;;19.04
28905;BMP280;60848;53.884;11.446;2023-04-30T11:48:35;102219.25;;;19.04
28905;BMP280;60848;53.884;11.446;2023-04-30T11:51:13;102217.38;;;18.94
28905;BMP280;60848;53.884;11.446;2023-04-30T11:53:44;102213.59;;;18.91
28905;BMP280;60848;53.884;11.446;2023-04-30T11:56:16;102217.03;;;18.92
28905;BMP280;60848;53.884;11.446;2023-04-30T11:58:45;102207.59;;;18.84
28905;BMP280;60848;53.884;11.446;2023-04-30T12:01:14;102218.16;;;18.77
28905;BMP280;60848;53.884;11.446;2023-04-30T12:03:45;102222.38;;;18.71
28905;BMP280;60848;53.884;11.446;2023-04-30T12:06:20;102211.75;;;18.67
28905;BMP280;60848;53.884;11.446;2023-04-30T12:08:51;102214.81;;;18.66
28905;BMP280;60848;53.884;11.446;2023-04-30T12:11:22;102217.47;;;18.66
28905;BMP280;60848;53.884;11.446;2023-04-30T12:13:52;102212.91;;;18.55
28905;BMP280;60848;53.884;11.446;2023-04-30T12:16:22;102220.88;;;18.59
28905;BMP280;60848;53.884;11.446;2023-04-30T12:18:50;102218.97;;;18.63
28905;BMP280;60848;53.884;11.446;2023-04-30T12:21:20;102219.34;;;18.65
28905;BMP280;60848;53.884;11.446;2023-04-30T12:23:49;102211.38;;;18.61
28905;BMP280;60848;53.884;11.446;2023-04-30T12:26:17;102207.97;;;18.72
28905;BMP280;60848;53.884;11.446;2023-04-30T12:28:48;102206.44;;;18.81
28905;BMP280;60848;53.884;11.446;2023-04-30T12:31:19;102208.31;;;18.91
28905;BMP280;60848;53.884;11.446;2023-04-30T12:33:54;102205.66;;;19.02
28905;BMP280;60848;53.884;11.446;2023-04-30T12:36:29;102211.28;;;19.11
28905;BMP280;60848;53.884;11.446;2023-04-30T12:39:05;102206.31;;;19.23
28905;BMP280;60848;53.884;11.446;2023-04-30T12:41:36;102208.56;;;19.32
28905;BMP280;60848;53.884;11.446;2023-04-30T12:44:19;102206.25;;;19.37
28905;BMP280;60848;53.884;11.446;2023-04-30T12:46:51;102199.41;;;19.40
28905;BMP280;60848;53.884;11.446;2023-04-30T12:49:23;102204.34;;;19.38
28905;BMP280;60848;53.884;11.446;2023-04-30T12:51:57;102198.72;;;19.18
28905;BMP280;60848;53.884;11.446;2023-04-30T12:54:30;102196.88;;;19.08
28905;BMP280;60848;53.884;11.446;2023-04-30T12:56:59;102205.22;;;19.03
28905;BMP280;60848;53.884;11.446;2023-04-30T12:59:31;102201.47;;;18.94
28905;BMP280;60848;53.884;11.446;2023-04-30T13:02:09;102190.53;;;18.78
28905;BMP280;60848;53.884;11.446;2023-04-30T13:04:41;102198.88;;;18.69
28905;BMP280;60848;53.884;11.446;2023-04-30T13:07:12;102185.63;;;18.58
28905;BMP280;60848;53.884;11.446;2023-04-30T13:09:40;102189.81;;;18.45
28905;BMP280;60848;53.884;11.446;2023-04-30T13:12:10;102187.19;;;18.35
28905;BMP280;60848;53.884;11.446;2023-04-30T13:14:42;102195.50;;;18.23
28905;BMP280;60848;53.884;11.446;2023-04-30T13:17:11;102183.41;;;18.15
28905;BMP280;60848;53.884;11.446;2023-04-30T13:19:39;102182.22;;;18.02
28905;BMP280;60848;53.884;11.446;2023-04-30T13:22:08;102178.81;;;17.91
28905;BMP280;60848;53.884;11.446;2023-04-30T13:24:39;102163.66;;;17.74
28905;BMP280;60848;53.884;11.446;2023-04-30T13:27:09;102171.97;;;17.58
28905;BMP280;60848;53.884;11.446;2023-04-30T13:29:38;102166.25;;;17.53
28905;BMP280;60848;53.884;11.446;2023-04-30T13:32:10;102170.41;;;17.50
28905;BMP280;60848;53.884;11.446;2023-04-30T13:34:38;102166.25;;;17.49
28905;BMP280;60848;53.884;11.446;2023-04-30T13:37:07;102159.06;;;17.50
28905;BMP280;60848;53.884;11.446;2023-04-30T13:39:36;102164.38;;;17.46
28905;BMP280;60848;53.884;11.446;2023-04-30T13:42:06;102161.66;;;17.29
28905;BMP280;60848;53.884;11.446;2023-04-30T13:44:35;102155.91;;;17.16
28905;BMP280;60848;53.884;11.446;2023-04-30T13:47:03;102161.19;;;17.06
28905;BMP280;60848;53.884;11.446;2023-04-30T13:49:33;102150.53;;;16.95
28905;BMP280;60848;53.884;11.446;2023-04-30T13:52:02;102157.31;;;16.89
28905;BMP280;60848;53.884;11.446;2023-04-30T13:54:30;102150.09;;;16.86
28905;BMP280;60848;53.884;11.446;2023-04-30T13:56:59;102150.84;;;16.87
28905;BMP280;60848;53.884;11.446;2023-04-30T13:59:30;102144.03;;;16.82
28905;BMP280;60848;53.884;11.446;2023-04-30T14:02:01;102151.19;;;16.78
28905;BMP280;60848;53.884;11.446;2023-04-30T14:04:29;102145.16;;;16.78
28905;BMP280;60848;53.884;11.446;2023-04-30T14:07:00;102140.97;;;16.77